Terminal Aerodrome Forecast
Issued by NWS

Home | Current Version | Previous Version | Text Only | Print | Product List | Glossary Off
Versions: 1 2 3 4 5 6 7 8 9 10 11 12 13 14 15 16 17 18

000
FTUS43 KICT 251137
TAFRSL
TAF
KRSL 251137Z 2512/2612 30012KT P6SM FEW030 SCT100 BKN200
     FM251600 33014G20KT P6SM BKN035
     FM252100 36012KT P6SM SCT045
     FM260000 06015G22KT P6SM FEW045
     FM260500 07014G21KT P6SM SCT009 BKN015=

USA.gov is the U.S. government's official web portal to all federal, state and local government web resources and services.